createdAt,value
2023-01-20T00:13:34.729Z,27
2023-01-20T00:29:17.629Z,29
2023-01-20T00:45:00.561Z,28.4
2023-01-20T01:00:43.282Z,29.5
2023-01-20T01:16:26.037Z,25.9
2023-01-20T01:32:08.652Z,27
2023-01-20T01:47:51.733Z,27.6
2023-01-20T02:03:34.708Z,27.6
2023-01-20T02:19:17.801Z,28.1
2023-01-20T02:35:00.627Z,27.6
2023-01-20T02:50:43.703Z,23.4
2023-01-20T03:06:26.665Z,23.3
2023-01-20T03:22:09.775Z,22.2
2023-01-20T03:37:53.034Z,22.6
2023-01-20T03:53:36.243Z,23.5
2023-01-20T04:09:19.271Z,25.4
2023-01-20T04:25:01.684Z,26.5
2023-01-20T04:40:44.273Z,31.9
2023-01-20T04:56:27.210Z,31.7
2023-01-20T05:12:10.454Z,32.9
2023-01-20T05:27:53.741Z,32.09
2023-01-20T05:43:36.457Z,37.7
2023-01-20T05:59:19.490Z,38.09
2023-01-20T06:15:02.374Z,38.09
2023-01-20T06:30:45.685Z,40.9
2023-01-20T06:46:28.680Z,45.4
2023-01-20T07:02:11.618Z,49.2
2023-01-20T07:17:54.910Z,47
2023-01-20T07:33:38.071Z,47.3
2023-01-20T07:49:20.539Z,43.1
2023-01-20T08:05:02.911Z,45.1
2023-01-20T08:20:46.027Z,51
2023-01-20T08:36:28.568Z,55.6
2023-01-20T08:52:11.641Z,51.1
2023-01-20T09:07:54.135Z,46.7
2023-01-20T09:23:36.499Z,47
2023-01-20T09:39:19.490Z,43.2
2023-01-20T09:55:01.991Z,39.5
2023-01-20T10:10:45.162Z,36.8
2023-01-20T10:26:27.414Z,43.7
2023-01-20T10:42:10.302Z,39.59
2023-01-20T10:57:53.236Z,40
2023-01-20T11:13:36.122Z,37.8
2023-01-20T11:29:19.011Z,41.5
2023-01-20T11:45:02.007Z,41.9
2023-01-20T12:00:45.076Z,49.3
2023-01-20T12:01:32.514Z,51.7
2023-01-20T12:17:15.620Z,43.7
2023-01-20T12:32:58.745Z,42.4
2023-01-20T12:48:41.593Z,41.5
2023-01-20T13:04:23.978Z,40.5
2023-01-20T13:20:06.725Z,42
2023-01-20T13:35:49.372Z,41.2
2023-01-20T13:51:32.609Z,47.3
2023-01-20T14:07:15.219Z,45.7
2023-01-20T14:22:58.503Z,45.7
2023-01-20T14:38:40.998Z,41.7
2023-01-20T14:54:24.153Z,43.5
2023-01-20T15:10:07.268Z,43.4
2023-01-20T15:25:50.456Z,43.4
2023-01-20T15:41:32.803Z,44.7
2023-01-20T15:57:15.984Z,41.8
2023-01-20T16:12:58.670Z,41.4
2023-01-20T16:28:41.889Z,49.5
2023-01-20T16:44:24.296Z,45.6
2023-01-20T17:00:07.229Z,44.9
2023-01-20T17:15:49.870Z,55.1
2023-01-20T17:31:32.320Z,55.3
2023-01-20T17:47:15.026Z,48.4
2023-01-20T18:02:57.572Z,48.8
2023-01-20T18:18:40.689Z,48.2
2023-01-20T18:34:24.010Z,46
2023-01-20T18:50:06.450Z,40.4
2023-01-20T19:05:49.439Z,38.8
2023-01-20T19:21:31.993Z,38.9
2023-01-20T19:37:15.189Z,35.5
2023-01-20T19:52:58.244Z,34
2023-01-20T20:08:40.967Z,34.3
2023-01-20T20:24:23.649Z,31.3
2023-01-20T20:40:06.145Z,29.5
2023-01-20T20:55:48.543Z,28.5
2023-01-20T21:11:31.132Z,30.9
2023-01-20T21:27:14.145Z,32.3
2023-01-20T21:42:57.424Z,34.3
2023-01-20T21:58:40.738Z,23.7
2023-01-20T22:14:23.718Z,24.4
2023-01-20T22:30:06.709Z,23.4
2023-01-20T23:01:31.903Z,21.6
2023-01-20T23:17:14.961Z,21.4
2023-01-20T23:32:58.298Z,20.7
2023-01-20T23:48:40.919Z,24.4
